Austin (LCRA Redbud)'s Hourly Summary for Saturday, March 18, 2017
Hour Temp
(f)
RH
(%)
Solar Rad.
(MJ/m2)
Rainfall
(in)
Wind
(mph)
3/18/2017 12:00 AM 70 74 0 0 5.06
3/18/2017 1:00 AM 68 78 0 0 2.38
3/18/2017 2:00 AM 66 84 0 0 1.45
3/18/2017 3:00 AM 66 87 0 0 0.45
3/18/2017 4:00 AM 66 87 0 0 0.88
3/18/2017 5:00 AM 66 89 0 0 1.04
3/18/2017 6:00 AM 66 89 0 0 1.4
3/18/2017 7:00 AM 66 89 0 0 1.28
3/18/2017 8:00 AM 65 91 0.01 0 0.77
3/18/2017 9:00 AM 66 91 0.13 0 0.25
3/18/2017 10:00 AM 67 89 0.3 0 0.51
3/18/2017 11:00 AM 69 82 0.89 0 1.9
3/18/2017 12:00 PM 71 79 0.81 0 2.32
3/18/2017 1:00 PM 73 67 1.49 0 2.01
3/18/2017 2:00 PM 78 58 2.67 0 3.29
3/18/2017 3:00 PM 81 49 3 0 3.18
3/18/2017 4:00 PM 81 46 1.58 0 3.56
3/18/2017 5:00 PM 82 45 1.62 0 3.54
3/18/2017 6:00 PM 82 46 0.94 0 2.29
3/18/2017 7:00 PM 82 47 0.71 0 2.16
3/18/2017 8:00 PM 78 50 0.1 0 0.46
3/18/2017 9:00 PM 72 68 0 0 0
3/18/2017 10:00 PM 70 75 0 0 0.05
3/18/2017 11:00 PM 72 74 0 0 1.38
Data Summary 71 72 14.25 0.00 1.73